Time;durP1;ratioP1;P1;durP2;ratioP2;P2;SDS_P1;SDS_P2;PMS_P1;PMS_P2;Temp;Humidity;BMP_temperature;BMP_pressure;BME280_temperature;BME280_humidity;BME280_pressure;Samples;Min_cycle;Max_cycle;Signal;HPM_P1;HPM_P2
2022/04/02 00:03:45;;;;;;;4.60;3.47;;;4.10;73.90;;;;;;10357219;28;20240;-78
2022/04/02 00:08:48;;;;;;;4.57;2.93;;;2.40;75.90;;;;;;10347418;28;20278;-78
2022/04/02 00:13:50;;;;;;;5.53;3.40;;;2.60;80.40;;;;;;10354853;28;20286;-78
2022/04/02 00:18:53;;;;;;;3.17;2.13;;;2.10;75.30;;;;;;10352154;28;20290;-78
2022/04/02 00:23:55;;;;;;;8.33;3.83;;;2.60;82.70;;;;;;10335934;28;20229;-78
2022/04/02 00:28:58;;;;;;;8.57;4.10;;;2.10;77.30;;;;;;10369930;28;20313;-77
2022/04/02 00:34:01;;;;;;;6.87;4.10;;;2.70;76.50;;;;;;10357308;28;20716;-78
2022/04/02 00:39:05;;;;;;;4.30;2.90;;;1.30;79.00;;;;;;10354065;28;20298;-78
2022/04/02 00:44:09;;;;;;;7.03;3.57;;;3.60;78.10;;;;;;10315934;28;20282;-78
2022/04/02 00:49:13;;;;;;;4.87;2.97;;;2.00;80.50;;;;;;10347644;28;20260;-78
2022/04/02 00:54:20;;;;;;;6.87;4.00;;;3.10;77.20;;;;;;10315348;28;20290;-78
2022/04/02 00:59:23;;;;;;;5.37;3.50;;;3.80;72.10;;;;;;10328785;28;20707;-78
2022/04/02 01:04:26;;;;;;;2.43;2.23;;;2.30;75.80;;;;;;10346735;28;20383;-77
2022/04/02 01:09:28;;;;;;;12.00;3.93;;;2.90;76.90;;;;;;10338519;28;20792;-77
2022/04/02 01:14:31;;;;;;;7.93;4.00;;;2.30;77.10;;;;;;10339561;28;20232;-78
2022/04/02 01:19:42;;;;;;;12.30;3.47;;;3.70;73.80;;;;;;10330819;28;20306;-78
2022/04/02 01:24:53;;;;;;;6.07;4.30;;;3.50;78.70;;;;;;10339945;28;20704;-78
2022/04/02 01:29:58;;;;;;;6.07;2.90;;;3.20;74.10;;;;;;10334521;28;20257;-78
2022/04/02 01:35:01;;;;;;;5.50;2.37;;;5.20;74.30;;;;;;10329423;28;20301;-78
2022/04/02 01:40:06;;;;;;;2.67;2.37;;;3.20;81.40;;;;;;10313072;28;20240;-78
2022/04/02 01:45:15;;;;;;;5.90;3.30;;;3.40;77.00;;;;;;10323182;28;20241;-78
2022/04/02 01:50:26;;;;;;;5.63;3.57;;;2.70;77.40;;;;;;10322504;28;20244;-78
2022/04/02 01:55:30;;;;;;;5.47;2.70;;;1.10;77.90;;;;;;10322155;28;20292;-78
2022/04/02 02:00:44;;;;;;;8.43;3.40;;;2.80;78.70;;;;;;10314342;28;20338;-77
2022/04/02 02:05:47;;;;;;;5.27;3.43;;;3.00;70.80;;;;;;10329775;28;20623;-77
2022/04/02 02:10:50;;;;;;;5.03;3.17;;;2.80;77.40;;;;;;10320942;28;20299;-77
2022/04/02 02:16:15;;;;;;;5.47;2.90;;;2.20;75.20;;;;;;10341625;28;20764;-78
2022/04/02 02:21:18;;;;;;;4.97;2.67;;;3.40;74.50;;;;;;10340970;28;20278;-78
2022/04/02 02:26:22;;;;;;;5.10;3.63;;;3.00;82.80;;;;;;10325585;28;20272;-78
2022/04/02 02:31:24;;;;;;;3.23;2.27;;;2.00;73.30;;;;;;10312925;28;20255;-77
2022/04/02 02:36:27;;;;;;;3.57;2.30;;;3.50;82.70;;;;;;10328626;28;20306;-78
2022/04/02 02:41:39;;;;;;;6.27;3.13;;;3.60;76.10;;;;;;10312278;28;20688;-78
2022/04/02 02:46:47;;;;;;;2.97;2.00;;;1.50;78.60;;;;;;10321917;28;20291;-78
2022/04/02 02:52:01;;;;;;;5.07;3.50;;;3.30;85.10;;;;;;10319760;28;20307;-78
2022/04/02 02:57:04;;;;;;;2.83;2.00;;;1.60;73.00;;;;;;10313306;28;20227;-78
2022/04/02 03:02:07;;;;;;;2.47;2.10;;;3.30;79.20;;;;;;10304600;28;20304;-78
2022/04/02 03:07:10;;;;;;;10.43;2.57;;;2.20;83.00;;;;;;10317458;28;20229;-78
2022/04/02 03:12:16;;;;;;;5.60;3.00;;;2.60;74.00;;;;;;10306911;28;20371;-78
2022/04/02 03:17:19;;;;;;;3.27;2.40;;;1.10;75.40;;;;;;10317335;28;20240;-78
2022/04/02 03:22:25;;;;;;;5.93;1.93;;;2.00;77.30;;;;;;10310607;28;20523;-77
2022/04/02 03:27:28;;;;;;;3.37;2.40;;;1.80;90.20;;;;;;10310587;28;20255;-77
2022/04/02 03:32:31;;;;;;;6.03;2.67;;;3.30;71.40;;;;;;10315441;28;20284;-77
2022/04/02 03:37:38;;;;;;;5.27;3.23;;;2.70;73.10;;;;;;10319967;28;20257;-78
2022/04/02 03:42:42;;;;;;;7.57;2.73;;;1.50;71.70;;;;;;10337444;28;20274;-78
2022/04/02 03:47:47;;;;;;;4.30;2.33;;;1.80;72.80;;;;;;10316735;28;20236;-78
2022/04/02 03:52:50;;;;;;;3.70;2.40;;;3.90;71.70;;;;;;10337548;28;20701;-78
2022/04/02 03:57:57;;;;;;;3.97;2.27;;;3.00;78.50;;;;;;10312785;28;20231;-78
2022/04/02 04:03:03;;;;;;;7.87;2.70;;;2.90;71.20;;;;;;10341403;28;20558;-78
2022/04/02 04:08:11;;;;;;;2.47;1.90;;;3.50;67.30;;;;;;10354668;28;20252;-78
2022/04/02 04:13:16;;;;;;;1.87;1.53;;;2.20;84.90;;;;;;10355330;28;20236;-78
2022/04/02 04:18:19;;;;;;;6.53;2.80;;;3.40;78.50;;;;;;10311540;28;20236;-78
2022/04/02 04:23:22;;;;;;;2.80;1.90;;;3.30;66.60;;;;;;10326970;28;20375;-78
2022/04/02 04:28:26;;;;;;;3.07;1.93;;;3.50;78.10;;;;;;10349535;28;20252;-78
2022/04/02 04:33:31;;;;;;;2.20;1.80;;;2.80;75.40;;;;;;10322730;28;20252;-77
2022/04/02 04:38:34;;;;;;;5.30;2.57;;;1.70;86.50;;;;;;10341756;28;20623;-77
2022/04/02 04:43:42;;;;;;;4.00;2.80;;;1.50;75.00;;;;;;10307867;28;20236;-77
2022/04/02 04:48:47;;;;;;;5.17;2.70;;;1.60;77.20;;;;;;10324435;28;20374;-77
2022/04/02 04:53:51;;;;;;;9.97;3.73;;;1.00;79.20;;;;;;10324931;28;20227;-77
2022/04/02 04:58:55;;;;;;;5.73;2.90;;;1.90;77.50;;;;;;10321592;28;20225;-77
2022/04/02 05:04:02;;;;;;;2.83;2.30;;;1.30;78.00;;;;;;10320084;28;20236;-78
2022/04/02 05:09:08;;;;;;;9.40;3.30;;;4.80;75.20;;;;;;10310388;28;20288;-77
2022/04/02 05:14:16;;;;;;;6.70;2.93;;;1.70;72.20;;;;;;10339579;28;20233;-77
2022/04/02 05:19:24;;;;;;;6.17;2.77;;;1.30;78.70;;;;;;10323605;28;20294;-78
2022/04/02 05:24:28;;;;;;;4.70;2.80;;;3.60;73.40;;;;;;10322636;28;20291;-78
2022/04/02 05:29:32;;;;;;;8.40;2.87;;;0.60;79.90;;;;;;10322842;28;20264;-78
2022/04/02 05:34:36;;;;;;;4.47;2.73;;;0.70;81.10;;;;;;10327530;28;20261;-78
2022/04/02 05:39:38;;;;;;;7.30;3.43;;;1.00;79.40;;;;;;10325929;28;20279;-77
2022/04/02 05:44:42;;;;;;;5.80;3.07;;;0.50;83.90;;;;;;10320325;28;20244;-77
2022/04/02 05:49:47;;;;;;;2.80;2.17;;;0.40;85.90;;;;;;10332968;28;20595;-77
2022/04/02 05:54:50;;;;;;;5.33;2.67;;;1.20;82.10;;;;;;10339893;28;20229;-77
2022/04/02 05:59:52;;;;;;;2.63;2.10;;;2.30;79.00;;;;;;10323089;28;20310;-78
2022/04/02 06:04:55;;;;;;;5.33;2.27;;;2.60;76.80;;;;;;10341957;28;20236;-78
2022/04/02 06:09:58;;;;;;;4.27;2.93;;;1.80;77.10;;;;;;10340369;28;20299;-78
2022/04/02 06:15:01;;;;;;;6.93;2.73;;;1.40;79.20;;;;;;10340777;28;20748;-78
2022/04/02 06:20:07;;;;;;;3.63;2.70;;;2.40;76.60;;;;;;10324065;28;20287;-77
2022/04/02 06:25:10;;;;;;;4.00;2.43;;;2.30;79.30;;;;;;10342543;28;20300;-77
2022/04/02 06:30:15;;;;;;;4.70;3.00;;;2.20;79.80;;;;;;10337088;28;20319;-78
2022/04/02 06:35:18;;;;;;;3.73;2.27;;;1.60;80.50;;;;;;10337723;28;20304;-77
2022/04/02 06:40:23;;;;;;;4.33;2.80;;;2.50;75.90;;;;;;10321766;28;20235;-77
2022/04/02 06:45:26;;;;;;;4.37;2.10;;;1.50;79.90;;;;;;10339948;28;20236;-78
2022/04/02 06:50:29;;;;;;;3.70;2.40;;;2.80;81.70;;;;;;10326545;28;20255;-77
2022/04/02 06:55:32;;;;;;;2.63;2.20;;;2.30;79.00;;;;;;10349677;28;20291;-77
2022/04/02 07:00:35;;;;;;;3.00;1.90;;;2.60;79.30;;;;;;10337870;28;20224;-78
2022/04/02 07:05:37;;;;;;;6.73;2.30;;;3.40;77.40;;;;;;10356248;28;20244;-77
2022/04/02 07:10:39;;;;;;;3.33;2.07;;;2.90;70.80;;;;;;10344533;28;20360;-78
2022/04/02 07:15:42;;;;;;;4.13;2.17;;;4.30;73.60;;;;;;10347808;28;20229;-78
2022/04/02 07:20:51;;;;;;;7.60;2.20;;;3.40;69.30;;;;;;10344408;28;20294;-78
2022/04/02 07:25:55;;;;;;;7.43;2.30;;;4.00;67.90;;;;;;10330553;28;20291;-78
2022/04/02 07:30:58;;;;;;;6.73;2.47;;;4.90;66.00;;;;;;10353643;28;20251;-78
2022/04/02 07:36:09;;;;;;;7.63;1.97;;;4.70;62.00;;;;;;10331991;28;20685;-78
2022/04/02 07:41:22;;;;;;;13.60;2.77;;;4.60;63.10;;;;;;10343468;28;20200;-78
2022/04/02 07:46:27;;;;;;;5.50;2.87;;;;;;;;;;10318867;28;20208;-79
2022/04/02 07:51:30;;;;;;;8.73;2.07;;;4.70;70.80;;;;;;10341947;28;20645;-78
2022/04/02 07:56:43;;;;;;;6.73;2.20;;;6.10;62.60;;;;;;10373693;28;20262;-78
2022/04/02 08:01:48;;;;;;;4.00;2.00;;;5.00;57.50;;;;;;10365467;28;20271;-78
2022/04/02 08:06:52;;;;;;;6.07;2.03;;;5.20;61.90;;;;;;10361774;28;20817;-78
2022/04/02 08:12:01;;;;;;;3.97;1.60;;;6.30;55.20;;;;;;10371789;28;20259;-78
2022/04/02 08:17:07;;;;;;;5.53;2.40;;;6.20;57.60;;;;;;10335207;28;20678;-78
2022/04/02 08:22:09;;;;;;;11.10;2.47;;;5.90;54.80;;;;;;10344809;28;20282;-78
2022/04/02 08:27:18;;;;;;;10.33;2.27;;;4.80;56.20;;;;;;10323875;28;20271;-78
2022/04/02 08:32:32;;;;;;;18.23;2.60;;;6.20;54.90;;;;;;10351544;28;20741;-78
2022/04/02 08:37:35;;;;;;;5.70;2.23;;;5.70;55.50;;;;;;10345304;28;20256;-78
2022/04/02 08:42:52;;;;;;;11.57;2.20;;;5.30;61.10;;;;;;10350958;28;20240;-78
2022/04/02 08:48:13;;;;;;;15.83;2.20;;;5.20;57.50;;;;;;10372258;28;20236;-78
2022/04/02 08:53:20;;;;;;;12.50;2.07;;;6.20;56.80;;;;;;10336831;28;20255;-78
2022/04/02 08:59:00;;;;;;;7.27;2.67;;;6.50;54.50;;;;;;10348373;28;20790;-78
2022/04/02 09:04:17;;;;;;;3.83;1.57;;;6.20;53.80;;;;;;10317791;28;20241;-78
2022/04/02 09:09:55;;;;;;;7.53;1.83;;;8.60;59.10;;;;;;10331219;28;20304;-78
2022/04/02 09:15:40;;;;;;;6.80;2.17;;;7.10;54.40;;;;;;10371580;28;20273;-78
2022/04/02 09:20:56;;;;;;;11.07;2.57;;;7.40;55.50;;;;;;10347371;28;20239;-77
2022/04/02 09:26:22;;;;;;;37.03;4.40;;;6.70;54.30;;;;;;10369863;28;20299;-78
2022/04/02 09:32:09;;;;;;;10.00;2.37;;;6.90;49.30;;;;;;10354138;28;20256;-78
2022/04/02 09:37:17;;;;;;;16.63;2.83;;;6.40;47.90;;;;;;10368885;28;20259;-77
2022/04/02 09:42:41;;;;;;;23.17;3.50;;;6.30;48.30;;;;;;10363109;28;20254;-77
2022/04/02 09:48:08;;;;;;;10.20;2.63;;;6.30;47.80;;;;;;10368416;28;20244;-77
2022/04/02 09:53:24;;;;;;;13.47;2.17;;;7.20;46.80;;;;;;10335043;28;20252;-76
2022/04/02 09:58:54;;;;;;;15.27;2.97;;;7.00;46.50;;;;;;10344107;28;20286;-78
2022/04/02 10:04:19;;;;;;;11.57;2.97;;;6.50;47.10;;;;;;10330763;28;20278;-79
2022/04/02 10:09:27;;;;;;;7.57;2.40;;;7.40;46.10;;;;;;10314225;28;20506;-78
2022/04/02 10:14:32;;;;;;;11.27;2.07;;;7.70;47.10;;;;;;10333705;28;20597;-78
2022/04/02 10:19:39;;;;;;;8.40;2.20;;;7.30;46.60;;;;;;10311306;28;20667;-78
2022/04/02 10:24:51;;;;;;;9.53;2.07;;;6.50;44.70;;;;;;10364187;28;20274;-78
2022/04/02 10:30:00;;;;;;;8.10;2.10;;;7.20;47.40;;;;;;10350448;28;20239;-77
2022/04/02 10:35:08;;;;;;;4.53;2.07;;;9.10;54.30;;;;;;10345971;28;20286;-77
2022/04/02 10:40:19;;;;;;;13.27;2.07;;;7.10;45.60;;;;;;10318439;28;20202;-78
2022/04/02 10:45:22;;;;;;;8.10;2.40;;;7.40;46.20;;;;;;10321272;28;20228;-77
2022/04/02 10:50:26;;;;;;;17.20;2.07;;;8.20;45.50;;;;;;10333631;28;20268;-79
2022/04/02 11:01:05;;;;;;;10.13;2.10;;;8.10;46.30;;;;;;10245362;29;20235;-85
2022/04/02 11:06:09;;;;;;;4.53;2.20;;;8.30;47.10;;;;;;10212846;29;20240;-85
2022/04/02 11:11:17;;;;;;;9.70;3.17;;;8.40;44.90;;;;;;10215884;29;20231;-84
2022/04/02 11:16:23;;;;;;;3.80;1.67;;;8.10;50.70;;;;;;10219823;29;20180;-85
2022/04/02 11:21:34;;;;;;;14.43;3.87;;;8.20;50.40;;;;;;10216823;29;20203;-86
2022/04/02 11:26:42;;;;;;;13.57;2.50;;;8.60;43.80;;;;;;10218654;29;20211;-86
2022/04/02 11:31:46;;;;;;;8.93;2.17;;;8.40;44.30;;;;;;10219565;29;20203;-85
2022/04/02 11:37:03;;;;;;;4.43;1.80;;;8.80;44.40;;;;;;10219509;29;20200;-85
2022/04/02 11:42:07;;;;;;;6.67;2.13;;;9.40;41.70;;;;;;10218999;29;20199;-86
2022/04/02 11:47:14;;;;;;;17.07;3.53;;;7.80;47.80;;;;;;10221473;29;20176;-85
2022/04/02 11:52:17;;;;;;;20.57;2.43;;;8.50;49.70;;;;;;10221468;29;20207;-86
2022/04/02 11:57:20;;;;;;;15.17;2.20;;;8.70;45.10;;;;;;10247765;28;20222;-85
2022/04/02 12:02:42;;;;;;;6.53;2.03;;;7.90;45.30;;;;;;10298623;28;20198;-85
2022/04/02 12:07:46;;;;;;;17.40;3.00;;;8.40;46.80;;;;;;10299192;28;20182;-85
2022/04/02 12:13:10;;;;;;;21.23;3.03;;;8.40;47.00;;;;;;10286403;28;20261;-85
2022/04/02 12:18:14;;;;;;;11.73;2.60;;;8.00;45.20;;;;;;10266480;29;20203;-85
2022/04/02 12:23:18;;;;;;;6.97;2.50;;;7.70;46.20;;;;;;10259901;29;20257;-84
2022/04/02 12:28:22;;;;;;;13.60;3.07;;;7.80;44.80;;;;;;10270404;29;20234;-85
2022/04/02 12:33:25;;;;;;;23.33;4.50;;;8.40;44.60;;;;;;10262014;29;20234;-85
2022/04/02 12:38:30;;;;;;;19.63;3.13;;;8.00;44.70;;;;;;10262277;29;20199;-85
2022/04/02 12:43:40;;;;;;;9.47;2.50;;;7.80;45.60;;;;;;10261048;29;20194;-85
2022/04/02 12:48:44;;;;;;;9.40;3.07;;;8.60;47.40;;;;;;10260352;29;20206;-85
2022/04/02 12:53:49;;;;;;;4.30;2.17;;;8.30;44.80;;;;;;10241510;29;20651;-85
2022/04/02 12:58:53;;;;;;;10.67;2.27;;;8.60;50.00;;;;;;10258820;29;20250;-85
2022/04/02 13:04:03;;;;;;;12.80;2.23;;;8.10;46.00;;;;;;10256459;29;20261;-85
2022/04/02 13:09:16;;;;;;;6.20;2.33;;;7.90;46.60;;;;;;10257157;29;20610;-85
2022/04/02 13:14:33;;;;;;;7.37;2.53;;;8.40;48.00;;;;;;10239805;29;20230;-85
2022/04/02 13:25:21;;;;;;;11.67;2.17;;;8.40;47.20;;;;;;10249611;28;20249;-84
2022/04/02 13:30:41;;;;;;;15.17;2.50;;;7.90;47.90;;;;;;10248290;29;20249;-85
2022/04/02 13:35:50;;;;;;;9.20;2.40;;;8.30;46.10;;;;;;10260679;28;20308;-84
2022/04/02 13:40:55;;;;;;;6.37;2.17;;;8.90;47.10;;;;;;10248382;29;20269;-84
2022/04/02 13:46:02;;;;;;;17.00;2.83;;;8.10;49.40;;;;;;10247734;29;20222;-84
2022/04/02 13:51:14;;;;;;;13.33;3.50;;;7.80;48.20;;;;;;10246999;29;20257;-84
2022/04/02 13:56:18;;;;;;;5.60;2.13;;;7.50;47.50;;;;;;10247324;29;20790;-84
2022/04/02 14:01:21;;;;;;;10.63;2.20;;;7.50;47.50;;;;;;10247583;29;20289;-84
2022/04/02 14:06:25;;;;;;;8.67;2.53;;;7.70;50.20;;;;;;10248942;29;20242;-84
2022/04/02 14:11:42;;;;;;;13.17;2.43;;;8.10;48.70;;;;;;10247682;28;20317;-84
2022/04/02 14:17:02;;;;;;;10.53;2.70;;;7.50;47.00;;;;;;10247960;29;20225;-84
2022/04/02 14:22:08;;;;;;;9.47;3.20;;;8.30;46.60;;;;;;10246951;28;20755;-84
2022/04/02 14:27:35;;;;;;;11.97;3.70;;;8.60;46.10;;;;;;10246616;29;20292;-84
2022/04/02 14:33:05;;;;;;;11.40;3.07;;;8.10;45.70;;;;;;10207730;29;20254;-84
2022/04/02 14:38:35;;;;;;;8.73;2.30;;;7.50;46.40;;;;;;10237485;28;20253;-84
2022/04/02 14:43:46;;;;;;;24.97;3.57;;;7.30;47.80;;;;;;10272573;28;20671;-83
2022/04/02 14:49:32;;;;;;;4.17;2.47;;;7.50;46.90;;;;;;10248027;29;20197;-83
2022/04/02 14:55:12;;;;;;;7.57;2.37;;;7.70;45.30;;;;;;10247197;28;20249;-83
2022/04/02 15:00:34;;;;;;;9.63;3.57;;;7.50;44.20;;;;;;10248979;28;20265;-83
2022/04/02 15:06:05;;;;;;;6.73;3.00;;;7.60;45.70;;;;;;10250367;28;20237;-83
2022/04/02 15:11:16;;;;;;;6.93;2.80;;;7.40;44.50;;;;;;10285532;28;20707;-84
2022/04/02 15:16:31;;;;;;;3.67;2.20;;;7.00;44.50;;;;;;10246021;29;20304;-84
2022/04/02 15:21:34;;;;;;;5.13;2.93;;;8.30;44.60;;;;;;10247572;29;20366;-84
2022/04/02 15:26:50;;;;;;;19.27;4.70;;;7.30;44.20;;;;;;10248739;28;20234;-83
2022/04/02 15:32:24;;;;;;;13.17;4.00;;;7.00;44.80;;;;;;10245070;29;20244;-85
2022/04/02 15:37:32;;;;;;;13.43;3.13;;;7.20;44.90;;;;;;9926291;28;10000550;-85
2022/04/02 15:42:47;;;;;;;14.63;4.33;;;6.80;43.30;;;;;;10243845;28;20976;-85
2022/04/02 15:47:57;;;;;;;12.17;3.00;;;7.30;46.80;;;;;;10247205;28;20670;-85
2022/04/02 15:53:09;;;;;;;5.93;2.97;;;7.40;47.60;;;;;;10252101;29;20258;-84
2022/04/02 15:58:11;;;;;;;5.20;2.53;;;6.60;46.90;;;;;;10250884;28;20254;-84
2022/04/02 16:03:33;;;;;;;11.23;2.70;;;6.50;44.20;;;;;;10233364;28;20238;-84
2022/04/02 16:08:36;;;;;;;6.60;2.33;;;6.20;44.90;;;;;;10249581;29;20296;-84
2022/04/02 16:14:00;;;;;;;8.87;3.17;;;6.20;45.40;;;;;;10250021;29;20293;-84
2022/04/02 16:19:30;;;;;;;5.60;2.60;;;6.10;45.50;;;;;;10251301;28;20230;-84
2022/04/02 16:24:33;;;;;;;6.23;3.07;;;6.10;45.70;;;;;;10250136;29;20246;-84
2022/04/02 16:29:36;;;;;;;14.87;3.53;;;5.90;45.70;;;;;;10271766;28;20249;-84
2022/04/02 16:34:44;;;;;;;15.00;3.03;;;6.30;48.80;;;;;;10267753;28;20300;-83
2022/04/02 16:39:48;;;;;;;5.10;2.37;;;5.40;46.20;;;;;;10249308;29;20261;-84
2022/04/02 16:44:56;;;;;;;7.13;3.20;;;5.30;48.40;;;;;;10250660;29;20914;-84
2022/04/02 16:50:07;;;;;;;4.17;2.33;;;5.30;46.70;;;;;;10247885;28;20871;-84
2022/04/02 16:55:13;;;;;;;5.57;2.93;;;5.40;46.60;;;;;;10247347;29;20768;-84
2022/04/02 17:00:17;;;;;;;7.77;2.20;;;5.70;47.80;;;;;;10249485;28;20253;-84
2022/04/02 17:05:25;;;;;;;7.13;2.67;;;5.70;51.50;;;;;;10248991;28;20698;-84
2022/04/02 17:10:30;;;;;;;6.43;3.10;;;5.60;47.80;;;;;;10249678;28;20265;-84
2022/04/02 17:15:34;;;;;;;9.53;3.40;;;5.30;47.00;;;;;;10245793;29;20262;-85
2022/04/02 17:20:38;;;;;;;6.40;2.93;;;;;;;;;;10248398;29;20688;-84
2022/04/02 17:25:41;;;;;;;4.83;2.30;;;4.90;65.80;;;;;;10264862;28;20244;-85
2022/04/02 17:30:44;;;;;;;4.23;2.13;;;4.60;49.20;;;;;;10264287;28;20683;-84
2022/04/02 17:35:53;;;;;;;7.40;3.40;;;5.20;59.70;;;;;;10247851;28;20245;-85
2022/04/02 17:41:16;;;;;;;12.40;3.07;;;5.20;56.70;;;;;;10256745;28;20226;-86
2022/04/02 17:46:27;;;;;;;4.37;2.63;;;4.90;48.70;;;;;;10236667;29;20618;-86
2022/04/02 17:51:31;;;;;;;6.57;1.80;;;5.00;50.80;;;;;;10248826;28;20632;-86
2022/04/02 17:56:34;;;;;;;9.03;3.23;;;6.20;60.20;;;;;;10247261;28;20277;-85
2022/04/02 18:01:38;;;;;;;7.07;2.67;;;4.10;51.30;;;;;;10247212;29;20603;-86
2022/04/02 18:06:44;;;;;;;6.10;2.90;;;4.10;54.50;;;;;;10246946;29;20301;-86
2022/04/02 18:11:47;;;;;;;5.30;2.80;;;4.10;50.40;;;;;;10254076;28;20258;-85
2022/04/02 18:16:50;;;;;;;12.03;3.67;;;4.90;55.10;;;;;;10231866;29;20631;-85
2022/04/02 18:21:52;;;;;;;4.80;3.07;;;4.40;52.00;;;;;;10248124;28;20304;-86
2022/04/02 18:26:55;;;;;;;4.57;2.87;;;4.10;53.30;;;;;;10262506;28;20225;-85
2022/04/02 18:31:58;;;;;;;7.57;2.83;;;4.40;55.30;;;;;;10247935;29;20250;-85
2022/04/02 18:37:00;;;;;;;4.37;2.23;;;4.40;57.20;;;;;;10261491;28;20234;-85
2022/04/02 18:42:04;;;;;;;11.50;2.90;;;3.80;58.50;;;;;;10246868;29;20582;-84
2022/04/02 18:47:08;;;;;;;4.47;2.57;;;3.90;56.10;;;;;;10247772;29;20214;-84
2022/04/02 18:52:11;;;;;;;5.53;2.33;;;3.70;63.80;;;;;;10252163;28;20246;-85
2022/04/02 18:57:13;;;;;;;5.80;3.23;;;3.50;61.40;;;;;;10243851;29;20253;-85
2022/04/02 19:02:16;;;;;;;3.27;1.90;;;3.80;57.90;;;;;;10243798;28;20234;-85
2022/04/02 19:07:18;;;;;;;4.80;2.63;;;3.50;67.30;;;;;;10245400;29;20825;-84
2022/04/02 19:12:21;;;;;;;5.23;2.50;;;3.90;56.40;;;;;;10244758;29;20262;-85
2022/04/02 19:17:31;;;;;;;6.43;2.87;;;4.30;63.40;;;;;;10245810;29;20619;-84
2022/04/02 19:22:34;;;;;;;6.93;2.17;;;3.60;62.70;;;;;;10263393;28;20688;-85
2022/04/02 19:27:38;;;;;;;3.73;2.20;;;3.30;61.40;;;;;;10251933;29;20253;-84
2022/04/02 19:32:41;;;;;;;3.30;2.10;;;2.80;59.60;;;;;;10269573;28;20707;-84
2022/04/02 19:37:44;;;;;;;13.37;3.50;;;3.00;64.40;;;;;;10253374;29;20410;-85
2022/04/02 19:42:47;;;;;;;5.53;2.97;;;2.10;61.60;;;;;;10253355;28;20234;-85
2022/04/02 19:47:51;;;;;;;3.70;2.33;;;2.50;59.30;;;;;;9565840;28;10022601;-87
2022/04/02 19:52:53;;;;;;;5.27;2.13;;;3.10;60.90;;;;;;10250466;29;20249;-86
2022/04/02 19:57:57;;;;;;;5.83;2.73;;;3.00;67.90;;;;;;10231370;28;20291;-86
2022/04/02 20:02:59;;;;;;;4.93;2.47;;;3.50;67.70;;;;;;10250105;29;20230;-86
2022/04/02 20:08:04;;;;;;;5.10;3.53;;;4.70;68.20;;;;;;10243217;29;20238;-86
2022/04/02 20:13:07;;;;;;;4.97;2.30;;;2.60;59.60;;;;;;10266084;28;20242;-87
2022/04/02 20:18:10;;;;;;;8.87;2.70;;;2.70;69.90;;;;;;10253375;29;20214;-87
2022/04/02 20:23:16;;;;;;;7.83;3.33;;;2.00;62.20;;;;;;10251871;29;20222;-87
2022/04/02 20:28:19;;;;;;;6.50;3.20;;;2.30;61.40;;;;;;10264668;28;20222;-87
2022/04/02 20:33:22;;;;;;;5.03;3.20;;;2.50;60.40;;;;;;10265934;28;20320;-87
2022/04/02 20:38:24;;;;;;;4.93;2.17;;;2.50;60.50;;;;;;10253387;28;20203;-87
2022/04/02 20:43:27;;;;;;;7.57;3.07;;;3.00;65.50;;;;;;10257714;28;20269;-87
2022/04/02 20:48:31;;;;;;;11.27;3.23;;;2.90;60.80;;;;;;10251802;29;20684;-87
2022/04/02 20:53:34;;;;;;;2.57;2.23;;;3.00;66.40;;;;;;10252444;29;20245;-87
2022/04/02 20:58:36;;;;;;;6.23;3.40;;;3.00;73.90;;;;;;10252101;29;20258;-86
2022/04/02 21:03:39;;;;;;;5.47;3.77;;;3.40;63.40;;;;;;10250864;29;20254;-87
2022/04/02 21:08:42;;;;;;;7.57;4.53;;;3.10;60.10;;;;;;10267228;28;20234;-87
2022/04/02 21:13:44;;;;;;;3.80;2.47;;;2.50;66.20;;;;;;10250971;29;20234;-87
2022/04/02 21:18:47;;;;;;;23.90;12.97;;;4.70;68.70;;;;;;10251704;29;20234;-86
2022/04/02 21:23:49;;;;;;;30.40;17.83;;;6.30;66.20;;;;;;10249469;28;20909;-87
2022/04/02 21:28:52;;;;;;;90.73;41.17;;;6.50;59.60;;;;;;10258950;28;20202;-87
2022/04/02 21:33:55;;;;;;;5.67;3.47;;;8.00;55.20;;;;;;10290656;28;20254;-87
2022/04/02 21:38:58;;;;;;;6.93;4.40;;;9.20;60.10;;;;;;10290073;28;20260;-87
2022/04/02 21:44:01;;;;;;;34.63;11.10;;;7.70;61.00;;;;;;10252145;28;20612;-87
2022/04/02 21:49:03;;;;;;;36.00;14.13;;;8.60;56.80;;;;;;10252511;28;20266;-87
2022/04/02 21:54:06;;;;;;;27.13;11.23;;;7.70;54.60;;;;;;10251929;29;20228;-87
2022/04/02 21:59:09;;;;;;;11.47;5.33;;;8.90;50.00;;;;;;10250836;28;20231;-87
2022/04/02 22:04:11;;;;;;;14.97;6.10;;;9.20;54.30;;;;;;10269908;28;20901;-87
2022/04/02 22:09:14;;;;;;;6.27;3.37;;;7.50;51.90;;;;;;10289350;28;20196;-87
2022/04/02 22:14:16;;;;;;;7.70;3.37;;;8.20;60.10;;;;;;10291570;28;20251;-87
2022/04/02 22:19:19;;;;;;;8.43;4.17;;;9.50;56.30;;;;;;10269115;28;20255;-87
2022/04/02 22:24:21;;;;;;;8.47;4.93;;;9.30;57.20;;;;;;10262859;28;20212;-87
2022/04/02 22:29:24;;;;;;;13.20;4.77;;;9.70;49.90;;;;;;10250098;29;20202;-87
2022/04/02 22:34:26;;;;;;;25.17;8.40;;;8.00;59.00;;;;;;10267825;28;20250;-87
2022/04/02 22:39:29;;;;;;;10.73;3.50;;;;;;;;;;10272907;28;20578;-87
2022/04/02 22:44:31;;;;;;;7.73;4.37;;;9.50;56.70;;;;;;10255027;28;20267;-87
2022/04/02 22:49:34;;;;;;;17.03;6.93;;;;;;;;;;10262293;28;20218;-86
2022/04/02 22:54:38;;;;;;;17.80;5.13;;;0.10;73.30;;;;;;10249880;28;20245;-86
2022/04/02 22:59:42;;;;;;;8.27;4.03;;;4.50;88.80;;;;;;10244655;28;20254;-86
2022/04/02 23:04:44;;;;;;;8.80;4.50;;;6.60;74.50;;;;;;10247686;29;20238;-86
2022/04/02 23:09:47;;;;;;;11.43;6.40;;;7.50;81.80;;;;;;10269040;28;20622;-86
2022/04/02 23:14:49;;;;;;;8.43;5.73;;;7.60;70.20;;;;;;10246281;28;20257;-87
2022/04/02 23:19:52;;;;;;;8.63;5.43;;;8.70;66.10;;;;;;10266735;28;20275;-86
2022/04/02 23:24:54;;;;;;;9.20;4.00;;;9.20;64.80;;;;;;10274950;28;20264;-86
2022/04/02 23:29:57;;;;;;;7.70;4.00;;;8.90;58.40;;;;;;10265287;28;20226;-86
2022/04/02 23:35:00;;;;;;;6.97;2.83;;;8.90;59.40;;;;;;10282172;28;20613;-87
2022/04/02 23:40:05;;;;;;;6.67;3.90;;;10.20;64.90;;;;;;10261871;28;20617;-87
2022/04/02 23:45:09;;;;;;;10.83;4.63;;;9.30;59.60;;;;;;10245755;28;20228;-86
2022/04/02 23:50:11;;;;;;;6.40;4.20;;;11.50;62.20;;;;;;10253028;28;20272;-86
2022/04/02 23:55:14;;;;;;;6.13;3.77;;;10.10;60.20;;;;;;10263138;28;20253;-87
